QFA25K YSSY-YMML
Flight info
| Callsign | QFA25K |
|---|---|
| Flight time | 1h 16m |
| Altitude | 34000 |
| Route | TESAT H65 LEECE Q29 ML |
| Aircraft | A321/M-SDE3FGHIRWY/LB1 |
Departure
| Time | 2026-05-04 10:00 |
|---|---|
| Airport | Sydney Kingsford Smith International Airport (YSSY) |
Arrival
| Time | 2026-05-04 11:16 |
|---|---|
| Airport | Melbourne Airport (YMML) |
| Time | Latitude | Longitude | Altitude | Speed | Heading |
|---|---|---|---|---|---|
| 2026-05-04 09:05 | -33.93624 | 151.17888 | 28 ft | 0 kts | 99° |
| 2026-05-04 09:42 | -33.93618 | 151.17841 | 30 ft | 4 kts | 110° |
| 2026-05-04 09:43 | -33.93608 | 151.17822 | 30 ft | 3 kts | 183° |
| 2026-05-04 09:43 | -33.93604 | 151.17822 | 30 ft | 0 kts | 190° |
| 2026-05-04 09:46 | -33.93633 | 151.17815 | 30 ft | 10 kts | 191° |
| 2026-05-04 09:46 | -33.93724 | 151.17789 | 30 ft | 14 kts | 194° |
| 2026-05-04 09:46 | -33.93821 | 151.17764 | 30 ft | 15 kts | 181° |
| 2026-05-04 09:47 | -33.93947 | 151.17792 | 29 ft | 23 kts | 167° |
| 2026-05-04 09:47 | -33.94111 | 151.17835 | 29 ft | 23 kts | 168° |
| 2026-05-04 09:49 | -33.94890 | 151.17976 | 30 ft | 13 kts | 168° |
| 2026-05-04 09:49 | -33.94994 | 151.18004 | 30 ft | 18 kts | 168° |
| 2026-05-04 09:49 | -33.95088 | 151.18046 | 30 ft | 12 kts | 132° |
| 2026-05-04 09:51 | -33.95044 | 151.18414 | 30 ft | 0 kts | 77° |
| 2026-05-04 09:51 | -33.95042 | 151.18426 | 30 ft | 7 kts | 78° |
| 2026-05-04 09:51 | -33.95069 | 151.18505 | 30 ft | 12 kts | 146° |
| 2026-05-04 09:51 | -33.95155 | 151.18586 | 30 ft | 21 kts | 137° |
| 2026-05-04 09:52 | -33.95282 | 151.18701 | 30 ft | 23 kts | 156° |
| 2026-05-04 09:52 | -33.95450 | 151.18755 | 30 ft | 26 kts | 167° |
| 2026-05-04 09:52 | -33.95622 | 151.18798 | 30 ft | 24 kts | 168° |
| 2026-05-04 09:52 | -33.95782 | 151.18841 | 30 ft | 23 kts | 167° |
| 2026-05-04 09:53 | -33.95931 | 151.18879 | 30 ft | 21 kts | 168° |
| 2026-05-04 09:53 | -33.96077 | 151.18917 | 30 ft | 24 kts | 168° |
| 2026-05-04 09:53 | -33.96260 | 151.18964 | 30 ft | 27 kts | 168° |
| 2026-05-04 09:53 | -33.96441 | 151.19011 | 30 ft | 26 kts | 167° |
| 2026-05-04 09:54 | -33.96612 | 151.19055 | 30 ft | 24 kts | 167° |
| 2026-05-04 09:54 | -33.96772 | 151.19063 | 30 ft | 22 kts | 187° |
| 2026-05-04 09:54 | -33.96916 | 151.19090 | 30 ft | 20 kts | 167° |
| 2026-05-04 09:54 | -33.97048 | 151.19124 | 30 ft | 14 kts | 168° |
| 2026-05-04 09:55 | -33.97118 | 151.19160 | 30 ft | 9 kts | 129° |
| 2026-05-04 09:55 | -33.97120 | 151.19231 | 29 ft | 9 kts | 78° |
| 2026-05-04 09:55 | -33.97116 | 151.19254 | 29 ft | 0 kts | 77° |
| 2026-05-04 09:57 | -33.97116 | 151.19256 | 29 ft | 2 kts | 77° |
| 2026-05-04 09:57 | -33.97099 | 151.19337 | 28 ft | 16 kts | 69° |
| 2026-05-04 09:57 | -33.97020 | 151.19362 | 25 ft | 10 kts | 348° |
| 2026-05-04 09:58 | -33.97014 | 151.19360 | 25 ft | 0 kts | 347° |
| 2026-05-04 09:58 | -33.96941 | 151.19341 | 24 ft | 40 kts | 347° |
| 2026-05-04 09:58 | -33.96446 | 151.19214 | 26 ft | 101 kts | 348° |
| 2026-05-04 10:00 | -33.93041 | 151.24021 | 2629 ft | 203 kts | 113° |
| 2026-05-04 10:00 | -33.93649 | 151.25560 | 3021 ft | 203 kts | 99° |
| 2026-05-04 10:02 | -33.93394 | 151.39921 | 4993 ft | 281 kts | 83° |
| 2026-05-04 10:04 | -33.95894 | 151.55575 | 6170 ft | 302 kts | 140° |
| 2026-05-04 10:04 | -33.97667 | 151.56948 | 6837 ft | 305 kts | 158° |
| 2026-05-04 10:04 | -33.99708 | 151.57658 | 7489 ft | 306 kts | 178° |
| 2026-05-04 10:04 | -34.01789 | 151.57444 | 8112 ft | 302 kts | 202° |
| 2026-05-04 10:05 | -34.03641 | 151.56339 | 8778 ft | 295 kts | 224° |
| 2026-05-04 10:05 | -34.05042 | 151.54583 | 9458 ft | 290 kts | 237° |
| 2026-05-04 10:05 | -34.06327 | 151.52692 | 10129 ft | 293 kts | 237° |
| 2026-05-04 10:05 | -34.07652 | 151.50716 | 10346 ft | 313 kts | 237° |
| 2026-05-04 10:06 | -34.09070 | 151.48601 | 10471 ft | 335 kts | 236° |
| 2026-05-04 10:06 | -34.10567 | 151.46376 | 10836 ft | 346 kts | 236° |
| 2026-05-04 10:06 | -34.12103 | 151.44119 | 11411 ft | 350 kts | 236° |
| 2026-05-04 10:08 | -34.21864 | 151.29705 | 14425 ft | 387 kts | 236° |
| 2026-05-04 10:08 | -34.23575 | 151.27180 | 14962 ft | 389 kts | 236° |
| 2026-05-04 10:08 | -34.25292 | 151.24639 | 15489 ft | 392 kts | 236° |
| 2026-05-04 10:08 | -34.27019 | 151.22076 | 16007 ft | 394 kts | 236° |
| 2026-05-04 10:09 | -34.28757 | 151.19495 | 16537 ft | 397 kts | 236° |
| 2026-05-04 10:09 | -34.30505 | 151.16898 | 17039 ft | 399 kts | 236° |
| 2026-05-04 10:09 | -34.32266 | 151.14281 | 17537 ft | 401 kts | 236° |
| 2026-05-04 10:09 | -34.34035 | 151.11652 | 18046 ft | 404 kts | 236° |
| 2026-05-04 10:10 | -34.35792 | 151.09042 | 18476 ft | 407 kts | 236° |
| 2026-05-04 10:10 | -34.37583 | 151.06378 | 18901 ft | 409 kts | 236° |
| 2026-05-04 10:10 | -34.39375 | 151.03699 | 19352 ft | 411 kts | 237° |
| 2026-05-04 10:10 | -34.41178 | 151.00998 | 19765 ft | 413 kts | 237° |
| 2026-05-04 10:11 | -34.42986 | 150.98290 | 20202 ft | 414 kts | 237° |
| 2026-05-04 10:11 | -34.44804 | 150.95568 | 20633 ft | 416 kts | 237° |
| 2026-05-04 10:11 | -34.46628 | 150.92841 | 21065 ft | 417 kts | 237° |
| 2026-05-04 10:11 | -34.48462 | 150.90099 | 21491 ft | 419 kts | 237° |
| 2026-05-04 10:12 | -34.50305 | 150.87343 | 21942 ft | 421 kts | 238° |
| 2026-05-04 10:12 | -34.52148 | 150.84581 | 22374 ft | 422 kts | 238° |
| 2026-05-04 10:12 | -34.53998 | 150.81805 | 22794 ft | 424 kts | 238° |
| 2026-05-04 10:12 | -34.55850 | 150.79016 | 23216 ft | 425 kts | 239° |
| 2026-05-04 10:13 | -34.57662 | 150.76181 | 23615 ft | 425 kts | 240° |
| 2026-05-04 10:13 | -34.59424 | 150.73292 | 23953 ft | 426 kts | 241° |
| 2026-05-04 10:13 | -34.61163 | 150.70365 | 24250 ft | 428 kts | 242° |
| 2026-05-04 10:13 | -34.62899 | 150.67416 | 24573 ft | 430 kts | 242° |
| 2026-05-04 10:14 | -34.64054 | 150.65454 | 24784 ft | 432 kts | 242° |
| 2026-05-04 10:14 | -34.65809 | 150.62489 | 25108 ft | 434 kts | 242° |
| 2026-05-04 10:16 | -34.78444 | 150.41444 | 27211 ft | 446 kts | 242° |
| 2026-05-04 10:16 | -34.80268 | 150.38388 | 27440 ft | 448 kts | 242° |
| 2026-05-04 10:16 | -34.82105 | 150.35307 | 27721 ft | 450 kts | 242° |
| 2026-05-04 10:16 | -34.83945 | 150.32218 | 27971 ft | 451 kts | 242° |
| 2026-05-04 10:17 | -34.85792 | 150.29113 | 28216 ft | 453 kts | 242° |
| 2026-05-04 10:17 | -34.87644 | 150.25998 | 28488 ft | 455 kts | 242° |
| 2026-05-04 10:19 | -35.00671 | 150.04087 | 30373 ft | 456 kts | 242° |
| 2026-05-04 10:19 | -35.02524 | 150.00956 | 30636 ft | 455 kts | 242° |
| 2026-05-04 10:19 | -35.04372 | 149.97828 | 30912 ft | 453 kts | 242° |
| 2026-05-04 10:19 | -35.06208 | 149.94714 | 31199 ft | 451 kts | 242° |
| 2026-05-04 10:20 | -35.08037 | 149.91612 | 31494 ft | 449 kts | 243° |
| 2026-05-04 10:20 | -35.09857 | 149.88521 | 31819 ft | 447 kts | 243° |
| 2026-05-04 10:20 | -35.11669 | 149.85441 | 32137 ft | 444 kts | 243° |
| 2026-05-04 10:20 | -35.13468 | 149.82387 | 32487 ft | 442 kts | 243° |
| 2026-05-04 10:21 | -35.15260 | 149.79339 | 32774 ft | 441 kts | 243° |
| 2026-05-04 10:21 | -35.17044 | 149.76299 | 33065 ft | 439 kts | 243° |
| 2026-05-04 10:21 | -35.18822 | 149.73269 | 33354 ft | 438 kts | 243° |
| 2026-05-04 10:21 | -35.20593 | 149.70251 | 33662 ft | 436 kts | 243° |
| 2026-05-04 10:22 | -35.24113 | 149.64240 | 34058 ft | 434 kts | 243° |
| 2026-05-04 10:22 | -35.25867 | 149.61237 | 34077 ft | 433 kts | 243° |
| 2026-05-04 10:23 | -35.29371 | 149.55241 | 34088 ft | 433 kts | 244° |
| 2026-05-04 10:25 | -35.43323 | 149.31238 | 34121 ft | 433 kts | 244° |
| 2026-05-04 10:25 | -35.46817 | 149.25202 | 34116 ft | 434 kts | 244° |
| 2026-05-04 10:26 | -35.50314 | 149.19164 | 34116 ft | 434 kts | 244° |
| 2026-05-04 10:26 | -35.53812 | 149.13110 | 34110 ft | 434 kts | 244° |
| 2026-05-04 10:27 | -35.57291 | 149.07088 | 34110 ft | 435 kts | 244° |
| 2026-05-04 10:27 | -35.60780 | 149.01022 | 34115 ft | 435 kts | 244° |
| 2026-05-04 10:28 | -35.64261 | 148.94952 | 34106 ft | 435 kts | 244° |
| 2026-05-04 10:28 | -35.67742 | 148.88872 | 34106 ft | 435 kts | 244° |
| 2026-05-04 10:29 | -35.71222 | 148.82785 | 34129 ft | 435 kts | 244° |
| 2026-05-04 10:29 | -35.74702 | 148.76686 | 34116 ft | 435 kts | 244° |
| 2026-05-04 10:30 | -35.78180 | 148.70583 | 34108 ft | 435 kts | 244° |
| 2026-05-04 10:30 | -35.81655 | 148.64479 | 34100 ft | 436 kts | 244° |
| 2026-05-04 10:31 | -35.85138 | 148.58346 | 34107 ft | 437 kts | 244° |
| 2026-05-04 10:32 | -35.97371 | 148.36656 | 34095 ft | 442 kts | 244° |
| 2026-05-04 10:33 | -36.00882 | 148.30412 | 34094 ft | 443 kts | 244° |
| 2026-05-04 10:33 | -36.04397 | 148.24143 | 34086 ft | 444 kts | 244° |
| 2026-05-04 10:34 | -36.07913 | 148.17847 | 34122 ft | 445 kts | 244° |
| 2026-05-04 10:34 | -36.11430 | 148.11548 | 34102 ft | 445 kts | 244° |
| 2026-05-04 10:35 | -36.14952 | 148.05247 | 34109 ft | 445 kts | 244° |
| 2026-05-04 10:35 | -36.18478 | 147.98946 | 34104 ft | 445 kts | 244° |
| 2026-05-04 10:36 | -36.21994 | 147.92645 | 34107 ft | 445 kts | 244° |
| 2026-05-04 10:36 | -36.25486 | 147.86376 | 34116 ft | 445 kts | 244° |
| 2026-05-04 10:37 | -36.27392 | 147.83323 | 34138 ft | 455 kts | 233° |
| 2026-05-04 10:37 | -36.29945 | 147.80884 | 34101 ft | 475 kts | 217° |
| 2026-05-04 10:37 | -36.33062 | 147.79325 | 34089 ft | 491 kts | 204° |
| 2026-05-04 10:37 | -36.36372 | 147.78228 | 34074 ft | 494 kts | 202° |
| 2026-05-04 10:39 | -36.59634 | 147.70725 | 34081 ft | 492 kts | 202° |
| 2026-05-04 10:40 | -36.66243 | 147.68548 | 34087 ft | 491 kts | 202° |
| 2026-05-04 10:40 | -36.72849 | 147.66333 | 34064 ft | 491 kts | 202° |
| 2026-05-04 10:41 | -36.79409 | 147.64136 | 34056 ft | 491 kts | 203° |
| 2026-05-04 10:41 | -36.86001 | 147.61940 | 34066 ft | 490 kts | 202° |
| 2026-05-04 10:42 | -36.92599 | 147.59718 | 34053 ft | 491 kts | 202° |
| 2026-05-04 10:42 | -36.99192 | 147.57493 | 34040 ft | 491 kts | 202° |
| 2026-05-04 10:43 | -37.05815 | 147.55281 | 34006 ft | 493 kts | 203° |
| 2026-05-04 10:44 | -37.27453 | 147.44625 | 33982 ft | 455 kts | 242° |
| 2026-05-04 10:45 | -37.29100 | 147.41326 | 34001 ft | 440 kts | 254° |
| 2026-05-04 10:45 | -37.30096 | 147.37764 | 33975 ft | 426 kts | 265° |
| 2026-05-04 10:45 | -37.30457 | 147.34130 | 33983 ft | 416 kts | 276° |
| 2026-05-04 10:45 | -37.30218 | 147.30552 | 33984 ft | 407 kts | 287° |
| 2026-05-04 10:46 | -37.29499 | 147.27137 | 33981 ft | 404 kts | 290° |
| 2026-05-04 10:46 | -37.27930 | 147.20344 | 33977 ft | 405 kts | 291° |
| 2026-05-04 10:47 | -37.26359 | 147.13555 | 33987 ft | 405 kts | 290° |
| 2026-05-04 10:47 | -37.24779 | 147.06751 | 33973 ft | 406 kts | 290° |
| 2026-05-04 10:49 | -37.18409 | 146.79512 | 34021 ft | 407 kts | 290° |
| 2026-05-04 10:50 | -37.16810 | 146.72721 | 34008 ft | 398 kts | 290° |
| 2026-05-04 10:51 | -37.11634 | 146.50797 | 31204 ft | 357 kts | 291° |
| 2026-05-04 10:52 | -37.10928 | 146.47835 | 30799 ft | 352 kts | 292° |
| 2026-05-04 10:52 | -37.10227 | 146.44914 | 30399 ft | 348 kts | 292° |
| 2026-05-04 10:52 | -37.09537 | 146.42035 | 29986 ft | 343 kts | 292° |
| 2026-05-04 10:54 | -37.14338 | 146.22370 | 26673 ft | 362 kts | 245° |
| 2026-05-04 10:54 | -37.15726 | 146.19745 | 26183 ft | 360 kts | 245° |
| 2026-05-04 10:56 | -37.25217 | 146.01698 | 22928 ft | 349 kts | 241° |
| 2026-05-04 10:56 | -37.26546 | 145.99170 | 22477 ft | 345 kts | 241° |
| 2026-05-04 10:56 | -37.27860 | 145.96662 | 22053 ft | 342 kts | 241° |
| 2026-05-04 10:57 | -37.29161 | 145.94180 | 21611 ft | 339 kts | 241° |
| 2026-05-04 10:57 | -37.30453 | 145.91718 | 21168 ft | 336 kts | 240° |
| 2026-05-04 10:57 | -37.31735 | 145.89275 | 20731 ft | 334 kts | 242° |
| 2026-05-04 10:57 | -37.33010 | 145.86850 | 20312 ft | 331 kts | 242° |
| 2026-05-04 10:58 | -37.34272 | 145.84446 | 19888 ft | 329 kts | 242° |
| 2026-05-04 10:58 | -37.35528 | 145.82048 | 19456 ft | 326 kts | 241° |
| 2026-05-04 10:58 | -37.36771 | 145.79677 | 19041 ft | 324 kts | 240° |
| 2026-05-04 10:58 | -37.37591 | 145.78111 | 18779 ft | 323 kts | 240° |
| 2026-05-04 10:59 | -37.38823 | 145.75751 | 18347 ft | 322 kts | 240° |
| 2026-05-04 10:59 | -37.40053 | 145.73400 | 17909 ft | 320 kts | 240° |
| 2026-05-04 10:59 | -37.41271 | 145.71070 | 17482 ft | 318 kts | 240° |
| 2026-05-04 10:59 | -37.42480 | 145.68756 | 17085 ft | 315 kts | 240° |
| 2026-05-04 11:00 | -37.43678 | 145.66463 | 16696 ft | 312 kts | 240° |
| 2026-05-04 11:01 | -37.52369 | 145.51229 | 13990 ft | 302 kts | 237° |
| 2026-05-04 11:02 | -37.53610 | 145.49099 | 13581 ft | 301 kts | 237° |
| 2026-05-04 11:02 | -37.54842 | 145.46979 | 13182 ft | 299 kts | 237° |
| 2026-05-04 11:05 | -37.71004 | 145.19004 | 8466 ft | 268 kts | 238° |
| 2026-05-04 11:06 | -37.72091 | 145.17114 | 8120 ft | 265 kts | 238° |
| 2026-05-04 11:06 | -37.73172 | 145.15234 | 7738 ft | 264 kts | 238° |
| 2026-05-04 11:06 | -37.74216 | 145.13421 | 7495 ft | 249 kts | 238° |
| 2026-05-04 11:06 | -37.75216 | 145.11688 | 7017 ft | 240 kts | 238° |
| 2026-05-04 11:08 | -37.81535 | 144.99914 | 4299 ft | 218 kts | 257° |
| 2026-05-04 11:10 | -37.83227 | 144.88571 | 3286 ft | 163 kts | 271° |
| 2026-05-04 11:12 | -37.76121 | 144.85518 | 1892 ft | 147 kts | 342° |
| 2026-05-04 11:12 | -37.75145 | 144.85345 | 1672 ft | 140 kts | 342° |
| 2026-05-04 11:12 | -37.74193 | 144.85176 | 1472 ft | 136 kts | 343° |
| 2026-05-04 11:12 | -37.73256 | 144.84971 | 1344 ft | 140 kts | 344° |
| 2026-05-04 11:13 | -37.72288 | 144.84720 | 1104 ft | 141 kts | 352° |
| 2026-05-04 11:13 | -37.71323 | 144.84588 | 929 ft | 140 kts | 353° |
| 2026-05-04 11:13 | -37.70351 | 144.84408 | 718 ft | 143 kts | 352° |
| 2026-05-04 11:13 | -37.69394 | 144.84243 | 560 ft | 139 kts | 353° |
| 2026-05-04 11:14 | -37.69069 | 144.84185 | 489 ft | 139 kts | 353° |
| 2026-05-04 11:14 | -37.67391 | 144.83879 | 368 ft | 67 kts | 351° |
| 2026-05-04 11:16 | -37.66863 | 144.83903 | 383 ft | 0 kts | 22° |
| 2026-05-04 11:16 | -37.66859 | 144.83904 | 383 ft | 1 kts | 22° |
| 2026-05-04 11:17 | -37.66842 | 144.83913 | 383 ft | 4 kts | 22° |
| 2026-05-04 11:17 | -37.66803 | 144.83933 | 383 ft | 5 kts | 22° |
| 2026-05-04 11:19 | -37.66489 | 144.84627 | 347 ft | 27 kts | 81° |
| 2026-05-04 11:19 | -37.66463 | 144.84854 | 330 ft | 27 kts | 79° |
| 2026-05-04 11:19 | -37.66472 | 144.85012 | 330 ft | 12 kts | 133° |
| 2026-05-04 11:19 | -37.66566 | 144.85057 | 333 ft | 15 kts | 173° |
| 2026-05-04 11:20 | -37.66657 | 144.85073 | 336 ft | 14 kts | 172° |
| 2026-05-04 11:20 | -37.66746 | 144.85087 | 337 ft | 12 kts | 178° |
| 2026-05-04 11:20 | -37.66806 | 144.85081 | 337 ft | 6 kts | 205° |
| 2026-05-04 11:20 | -37.66821 | 144.85052 | 350 ft | 3 kts | 248° |